Time;durP1;ratioP1;P1;durP2;ratioP2;P2;SDS_P1;SDS_P2;PMS_P1;PMS_P2;Temp;Humidity;BMP_temperature;BMP_pressure;BME280_temperature;BME280_humidity;BME280_pressure;Samples;Min_cycle;Max_cycle;Signal;HPM_P1;HPM_P2
2022/07/12 04:03:23;;;;;;;1999.90;999.90;;;;;;;;;;6243928;23;20198;-70
2022/07/12 04:06:08;;;;;;;1999.90;999.90;;;;;;;;;;6243484;23;20458;-70
2022/07/12 04:08:53;;;;;;;1999.90;999.90;;;;;;;;;;6243400;23;20168;-70
2022/07/12 04:11:38;;;;;;;1999.90;999.90;;;;;;;;;;6261056;22;20250;-70
2022/07/12 04:14:25;;;;;;;1999.90;999.90;;;;;;;;;;6275191;22;20208;-69
2022/07/12 04:17:09;;;;;;;1999.90;999.90;;;;;;;;;;6274673;22;20159;-71
2022/07/12 04:19:56;;;;;;;1999.90;999.90;;;;;;;;;;6274615;22;20164;-69
2022/07/12 04:22:41;;;;;;;1999.90;999.90;;;;;;;;;;6274778;22;20206;-70
2022/07/12 04:25:26;;;;;;;1999.90;999.90;;;;;;;;;;6274694;22;20524;-71
2022/07/12 04:28:11;;;;;;;1999.90;999.90;;;;;;;;;;6274695;22;20168;-70
2022/07/12 04:30:56;;;;;;;1999.90;999.90;;;;;;;;;;6274673;22;20272;-72
2022/07/12 04:33:41;;;;;;;1999.90;999.90;;;;;;;;;;6274513;22;20164;-71
2022/07/12 04:36:27;;;;;;;1999.90;999.90;;;;;;;;;;6273518;22;20255;-69
2022/07/12 04:39:12;;;;;;;1999.90;999.90;;;;;;;;;;6274218;22;20631;-70
2022/07/12 04:41:58;;;;;;;1999.90;999.90;;;;;;;;;;6273898;22;20375;-70
2022/07/12 04:44:42;;;;;;;1999.90;999.90;;;;;;;;;;6274857;22;20765;-68
2022/07/12 04:47:27;;;;;;;1999.90;999.90;;;;;;;;;;6274680;22;20167;-68
2022/07/12 04:50:13;;;;;;;1999.90;999.90;;;;;;;;;;6275415;22;20207;-69
2022/07/12 04:52:59;;;;;;;1999.90;999.90;;;;;;;;;;6276556;22;20161;-69
2022/07/12 04:55:44;;;;;;;1999.90;999.90;;;;;;;;;;6275249;22;20223;-69
2022/07/12 04:58:29;;;;;;;1999.90;999.90;;;;;;;;;;6274336;22;20375;-69
2022/07/12 05:01:14;;;;;;;1999.90;999.90;;;;;;;;;;6275220;22;20282;-69
2022/07/12 05:03:59;;;;;;;1999.90;999.90;;;;;;;;;;6275507;22;20552;-69
2022/07/12 05:06:44;;;;;;;1999.90;999.90;;;;;;;;;;6273094;22;20204;-71
2022/07/12 05:09:30;;;;;;;1999.90;999.90;;;;;;;;;;6273685;22;20880;-70
2022/07/12 05:12:15;;;;;;;1999.90;999.90;;;;;;;;;;6274562;22;20250;-70
2022/07/12 05:15:00;;;;;;;1999.90;999.90;;;;;;;;;;6273891;22;20169;-70
2022/07/12 05:17:45;;;;;;;1999.90;999.90;;;;;;;;;;6274115;22;20637;-69
2022/07/12 05:20:30;;;;;;;1999.90;999.90;;;;;;;;;;6273894;22;20243;-69
2022/07/12 05:23:16;;;;;;;1999.90;999.90;;;;;;;;;;6273223;22;20176;-68
2022/07/12 05:26:03;;;;;;;1999.90;999.90;;;;;;;;;;6273114;22;20191;-69
2022/07/12 05:28:48;;;;;;;1999.90;999.90;;;;;;;;;;6272835;22;20168;-67
2022/07/12 05:31:33;;;;;;;1999.90;999.90;;;;;;;;;;6273049;22;20283;-69
2022/07/12 05:34:18;;;;;;;1999.90;999.90;;;;;;;;;;6271547;22;20371;-70
2022/07/12 05:37:04;;;;;;;1999.90;999.90;;;;;;;;;;6273052;22;20235;-68
2022/07/12 05:39:49;;;;;;;1999.90;999.90;;;;;;;;;;6272750;22;20172;-68
2022/07/12 05:42:36;;;;;;;1999.90;999.90;;;;;;;;;;6272444;22;20539;-69
2022/07/12 05:45:22;;;;;;;1999.90;999.90;;;;;;;;;;6273263;22;20167;-69
2022/07/12 05:48:07;;;;;;;1999.90;999.90;;;;;;;;;;6272465;22;20168;-69
2022/07/12 05:50:52;;;;;;;1999.90;999.90;;;;;;;;;;6271575;22;20382;-69
2022/07/12 05:53:37;;;;;;;1999.90;999.90;;;;;;;;;;6272521;22;20175;-70
2022/07/12 05:56:22;;;;;;;1999.90;999.90;;;;;;;;;;6272775;22;20499;-69
2022/07/12 05:59:08;;;;;;;1999.90;999.90;;;;;;;;;;6272750;22;20250;-69
2022/07/12 06:01:53;;;;;;;1999.90;999.90;;;;;;;;;;6273459;22;20332;-70
2022/07/12 06:04:38;;;;;;;1999.90;999.90;;;;;;;;;;6274788;22;20206;-70
2022/07/12 06:07:23;;;;;;;1999.90;999.90;;;;;;;;;;6274769;22;20212;-69
2022/07/12 06:10:08;;;;;;;1999.90;999.90;;;;;;;;;;6274358;22;20164;-70
2022/07/12 06:12:54;;;;;;;1999.90;999.90;;;;;;;;;;6274261;22;20164;-70
2022/07/12 06:15:40;;;;;;;1999.90;999.90;;;;;;;;;;6274188;22;20171;-69
2022/07/12 06:18:25;;;;;;;1999.90;999.90;;;;;;;;;;6273920;22;20242;-70
2022/07/12 06:21:10;;;;;;;1999.90;999.90;;;;;;;;;;6273823;22;20213;-70
2022/07/12 06:23:55;;;;;;;1999.90;999.90;;;;;;;;;;6272491;22;20762;-70
2022/07/12 06:26:40;;;;;;;1999.90;999.90;;;;;;;;;;6273692;22;20192;-70
2022/07/12 06:29:25;;;;;;;1999.90;999.90;;;;;;;;;;6273233;22;20164;-69
2022/07/12 06:32:12;;;;;;;1999.90;999.90;;;;;;;;;;6272989;22;20294;-69
2022/07/12 06:34:57;;;;;;;1999.90;999.90;;;;;;;;;;6271818;22;20175;-69
2022/07/12 06:37:42;;;;;;;1999.90;999.90;;;;;;;;;;6272130;22;20702;-69
2022/07/12 06:40:27;;;;;;;1999.90;999.90;;;;;;;;;;6272440;22;20940;-70
2022/07/12 06:43:12;;;;;;;1999.90;999.90;;;;;;;;;;6272031;22;20168;-70
2022/07/12 06:45:58;;;;;;;1999.90;999.90;;;;;;;;;;6272383;22;20708;-70
2022/07/12 06:48:44;;;;;;;1999.90;999.90;;;;;;;;;;6271885;22;20171;-70
2022/07/12 06:51:29;;;;;;;1999.90;999.90;;;;;;;;;;6271968;22;20875;-70
2022/07/12 06:54:14;;;;;;;1999.90;999.90;;;;;;;;;;6272355;22;20169;-70
2022/07/12 06:56:59;;;;;;;1999.90;999.90;;;;;;;;;;6272335;22;20507;-70
2022/07/12 06:59:44;;;;;;;1999.90;999.90;;;;;;;;;;6271395;22;20252;-69
2022/07/12 07:02:29;;;;;;;1999.90;999.90;;;;;;;;;;6272226;22;20558;-70
2022/07/12 07:05:17;;;;;;;1999.90;999.90;;;;;;;;;;6272008;22;20246;-70
2022/07/12 07:08:02;;;;;;;1999.90;999.90;;;;;;;;;;6271315;22;20416;-70
2022/07/12 07:10:47;;;;;;;1999.90;999.90;;;;;;;;;;6273332;22;20582;-70
2022/07/12 07:13:32;;;;;;;1999.90;999.90;;;;;;;;;;6272196;22;20164;-69
2022/07/12 07:16:17;;;;;;;1999.90;999.90;;;;;;;;;;6273558;22;20164;-70
2022/07/12 07:19:03;;;;;;;1999.90;999.90;;;;;;;;;;6272899;22;20164;-70
2022/07/12 07:21:49;;;;;;;1999.90;999.90;;;;;;;;;;6272934;22;20251;-70
2022/07/12 07:24:34;;;;;;;1999.90;999.90;;;;;;;;;;6272580;22;20627;-69
2022/07/12 07:27:19;;;;;;;1999.90;999.90;;;;;;;;;;6271414;22;20450;-70
2022/07/12 07:33:07;;;;;;;1999.90;999.90;;;;;;;;;;6273003;22;20635;-70
2022/07/12 07:35:53;;;;;;;1999.90;999.90;;;;;;;;;;6271640;22;20172;-69
2022/07/12 07:38:39;;;;;;;1999.90;999.90;;;;;;;;;;6272363;22;20164;-70
2022/07/12 07:41:25;;;;;;;1999.90;999.90;;;;;;;;;;6272186;22;20290;-69
2022/07/12 07:44:10;;;;;;;1999.90;999.90;;;;;;;;;;6272385;22;20167;-69
2022/07/12 07:46:55;;;;;;;1999.90;999.90;;;;;;;;;;6272330;22;20187;-69
2022/07/12 07:49:40;;;;;;;1999.90;999.90;;;;;;;;;;6272771;22;20164;-69
2022/07/12 07:52:25;;;;;;;1999.90;999.90;;;;;;;;;;6272168;22;20255;-69
2022/07/12 07:55:13;;;;;;;1999.90;999.90;;;;;;;;;;6272401;22;20690;-70
2022/07/12 07:57:59;;;;;;;1999.90;999.90;;;;;;;;;;6273139;22;20160;-71
2022/07/12 08:00:44;;;;;;;1999.90;999.90;;;;;;;;;;6272686;22;20250;-69
2022/07/12 08:03:29;;;;;;;1999.90;999.90;;;;;;;;;;6272229;22;20619;-70
2022/07/12 08:06:14;;;;;;;1999.90;999.90;;;;;;;;;;6273131;22;20681;-71
2022/07/12 08:08:59;;;;;;;1999.90;999.90;;;;;;;;;;6272149;22;20210;-69
2022/07/12 08:11:45;;;;;;;1999.90;999.90;;;;;;;;;;6272607;22;20199;-70
2022/07/12 08:14:30;;;;;;;1999.90;999.90;;;;;;;;;;6271668;22;20378;-69
2022/07/12 08:17:15;;;;;;;1999.90;999.90;;;;;;;;;;6272278;22;20463;-69
2022/07/12 08:20:00;;;;;;;1999.90;999.90;;;;;;;;;;6272858;22;20247;-70
2022/07/12 08:22:46;;;;;;;1999.90;999.90;;;;;;;;;;6271546;22;20303;-70
2022/07/12 08:25:31;;;;;;;1999.90;999.90;;;;;;;;;;6273612;22;20234;-70
2022/07/12 08:28:17;;;;;;;1999.90;999.90;;;;;;;;;;6273716;22;20673;-70
2022/07/12 08:31:02;;;;;;;1999.90;999.90;;;;;;;;;;6274699;22;20199;-70
2022/07/12 08:33:47;;;;;;;1999.90;999.90;;;;;;;;;;6274766;22;20164;-70
2022/07/12 08:36:32;;;;;;;1999.90;999.90;;;;;;;;;;6275072;22;20163;-70
2022/07/12 08:39:17;;;;;;;1999.90;999.90;;;;;;;;;;6274353;22;20216;-69
2022/07/12 08:42:02;;;;;;;1999.90;999.90;;;;;;;;;;6273315;22;20453;-70
2022/07/12 08:44:55;;;;;;;1999.90;999.90;;;;;;;;;;6274645;22;20188;-70
2022/07/12 08:47:40;;;;;;;1999.90;999.90;;;;;;;;;;6274126;22;20273;-70
2022/07/12 08:50:26;;;;;;;1999.90;999.90;;;;;;;;;;6274441;22;20250;-70
2022/07/12 08:53:12;;;;;;;1999.90;999.90;;;;;;;;;;6274633;22;20168;-70
2022/07/12 08:55:57;;;;;;;1999.90;999.90;;;;;;;;;;6274795;22;20578;-70
2022/07/12 08:58:42;;;;;;;1999.90;999.90;;;;;;;;;;6274348;22;20187;-70
2022/07/12 09:01:41;;;;;;;1999.90;999.90;;;;;;;;;;6273174;22;20454;-71
2022/07/12 09:04:27;;;;;;;1999.90;999.90;;;;;;;;;;6274660;22;20291;-71
2022/07/12 09:07:16;;;;;;;1999.90;999.90;;;;;;;;;;6274548;22;20187;-70
2022/07/12 09:10:03;;;;;;;1999.90;999.90;;;;;;;;;;6274293;22;20185;-70
2022/07/12 09:12:49;;;;;;;1999.90;999.90;;;;;;;;;;6274480;22;20180;-69
2022/07/12 09:15:34;;;;;;;1999.90;999.90;;;;;;;;;;6274130;22;20215;-70
2022/07/12 09:18:28;;;;;;;1999.90;999.90;;;;;;;;;;6274250;22;20161;-70
2022/07/12 09:21:21;;;;;;;1999.90;999.90;;;;;;;;;;6274568;22;20679;-68
2022/07/12 09:24:06;;;;;;;1999.90;999.90;;;;;;;;;;6274550;22;20499;-70
2022/07/12 09:26:53;;;;;;;1999.90;999.90;;;;;;;;;;6274084;22;20192;-70
2022/07/12 09:29:47;;;;;;;1999.90;999.90;;;;;;;;;;6273643;22;20371;-69
2022/07/12 09:38:39;;;;;;;1999.90;999.90;;;;;;;;;;6273970;22;20160;-69
2022/07/12 09:41:24;;;;;;;1999.90;999.90;;;;;;;;;;6274159;22;20215;-70
2022/07/12 09:44:09;;;;;;;1999.90;999.90;;;;;;;;;;6274192;22;20164;-70
2022/07/12 09:46:54;;;;;;;1999.90;999.90;;;;;;;;;;6273883;22;20234;-70
2022/07/12 09:49:39;;;;;;;1999.90;999.90;;;;;;;;;;6273151;22;20376;-69
2022/07/12 09:52:27;;;;;;;1999.90;999.90;;;;;;;;;;6274077;22;20602;-69
2022/07/12 09:55:12;;;;;;;1999.90;999.90;;;;;;;;;;6274139;22;20252;-70
2022/07/12 09:58:00;;;;;;;1999.90;999.90;;;;;;;;;;6274047;22;20176;-70
2022/07/12 10:00:45;;;;;;;1999.90;999.90;;;;;;;;;;6273335;22;20203;-69
2022/07/12 10:03:32;;;;;;;1999.90;999.90;;;;;;;;;;6274010;22;20509;-69
2022/07/12 10:06:21;;;;;;;1999.90;999.90;;;;;;;;;;6274206;22;20525;-69
2022/07/12 10:09:07;;;;;;;1999.90;999.90;;;;;;;;;;6273391;22;20167;-70
2022/07/12 10:11:54;;;;;;;1999.90;999.90;;;;;;;;;;6273950;22;20200;-70
2022/07/12 10:14:39;;;;;;;1999.90;999.90;;;;;;;;;;6273777;22;20172;-70
2022/07/12 10:17:25;;;;;;;1999.90;999.90;;;;;;;;;;6272735;22;20210;-71
2022/07/12 10:20:17;;;;;;;1999.90;999.90;;;;;;;;;;6271272;22;20460;-69
2022/07/12 10:23:17;;;;;;;1999.90;999.90;;;;;;;;;;6273555;22;20210;-70
2022/07/12 10:26:24;;;;;;;1999.90;999.90;;;;;;;;;;6273111;22;20211;-70
2022/07/12 10:29:09;;;;;;;1999.90;999.90;;;;;;;;;;6273204;22;20161;-70
2022/07/12 10:31:55;;;;;;;1999.90;999.90;;;;;;;;;;6273849;22;20638;-68
2022/07/12 10:34:39;;;;;;;1999.90;999.90;;;;;;;;;;6272913;22;20167;-70
2022/07/12 10:37:24;;;;;;;1999.90;999.90;;;;;;;;;;6273500;22;20176;-71
2022/07/12 10:40:13;;;;;;;1999.90;999.90;;;;;;;;;;6271387;22;20365;-70
2022/07/12 10:43:19;;;;;;;1999.90;999.90;;;;;;;;;;6273555;22;20168;-70
2022/07/12 10:46:05;;;;;;;1999.90;999.90;;;;;;;;;;6273389;22;20172;-70
2022/07/12 10:48:50;;;;;;;1999.90;999.90;;;;;;;;;;6272409;22;20238;-70
2022/07/12 10:51:35;;;;;;;1999.90;999.90;;;;;;;;;;6272936;22;20207;-69
2022/07/12 10:54:22;;;;;;;1999.90;999.90;;;;;;;;;;6273636;22;20246;-70
2022/07/12 10:57:08;;;;;;;1999.90;999.90;;;;;;;;;;6273209;22;20202;-70
2022/07/12 10:59:55;;;;;;;1999.90;999.90;;;;;;;;;;6272898;22;20169;-69
2022/07/12 11:02:40;;;;;;;1999.90;999.90;;;;;;;;;;6273233;22;20211;-70
2022/07/12 11:05:25;;;;;;;1999.90;999.90;;;;;;;;;;6273522;22;20172;-69
2022/07/12 11:08:14;;;;;;;1999.90;999.90;;;;;;;;;;6273093;22;20171;-70
2022/07/12 11:11:00;;;;;;;1999.90;999.90;;;;;;;;;;6272568;22;20275;-69
2022/07/12 11:13:45;;;;;;;1999.90;999.90;;;;;;;;;;6273006;22;20169;-69
2022/07/12 11:16:32;;;;;;;1999.90;999.90;;;;;;;;;;6272806;22;20176;-69
2022/07/12 11:19:17;;;;;;;1999.90;999.90;;;;;;;;;;6273024;22;20816;-70
2022/07/12 11:22:02;;;;;;;1999.90;999.90;;;;;;;;;;6273199;22;20203;-69
2022/07/12 11:24:48;;;;;;;1999.90;999.90;;;;;;;;;;6272696;22;20172;-69
2022/07/12 11:27:34;;;;;;;1999.90;999.90;;;;;;;;;;6270235;22;20391;-69
2022/07/12 11:30:19;;;;;;;1999.90;999.90;;;;;;;;;;6272391;22;20165;-69
2022/07/12 11:33:05;;;;;;;1999.90;999.90;;;;;;;;;;6272601;22;20208;-69
2022/07/12 11:35:50;;;;;;;1999.90;999.90;;;;;;;;;;6272641;22;20248;-71
2022/07/12 11:38:35;;;;;;;1999.90;999.90;;;;;;;;;;6273005;22;20165;-70
2022/07/12 11:41:22;;;;;;;1999.90;999.90;;;;;;;;;;6272446;22;20204;-69
2022/07/12 11:44:07;;;;;;;1999.90;999.90;;;;;;;;;;6273060;22;20250;-69
2022/07/12 11:46:53;;;;;;;1999.90;999.90;;;;;;;;;;6273354;22;20167;-69
2022/07/12 11:49:42;;;;;;;1999.90;999.90;;;;;;;;;;6272736;22;20199;-68
2022/07/12 11:52:28;;;;;;;1999.90;999.90;;;;;;;;;;6272859;22;20208;-69
2022/07/12 11:55:13;;;;;;;1999.90;999.90;;;;;;;;;;6272552;22;20253;-69
2022/07/12 11:58:04;;;;;;;1999.90;999.90;;;;;;;;;;6271336;22;20440;-68
2022/07/12 12:00:50;;;;;;;1999.90;999.90;;;;;;;;;;6272379;22;20720;-70
2022/07/12 12:03:42;;;;;;;1999.90;999.90;;;;;;;;;;6273293;22;20246;-69
2022/07/12 12:06:30;;;;;;;1999.90;999.90;;;;;;;;;;6271933;22;20626;-70
2022/07/12 12:09:15;;;;;;;1999.90;999.90;;;;;;;;;;6272092;22;20632;-69
2022/07/12 12:12:00;;;;;;;1999.90;999.90;;;;;;;;;;6272879;22;20724;-70
2022/07/12 12:14:45;;;;;;;1999.90;999.90;;;;;;;;;;6271719;22;20239;-68
2022/07/12 12:17:30;;;;;;;1999.90;999.90;;;;;;;;;;6271230;22;20407;-70
2022/07/12 12:20:16;;;;;;;1999.90;999.90;;;;;;;;;;6270293;22;20172;-69
2022/07/12 12:23:03;;;;;;;1999.90;999.90;;;;;;;;;;6271391;22;20207;-69
2022/07/12 12:25:48;;;;;;;1999.90;999.90;;;;;;;;;;6271841;22;20169;-70
2022/07/12 12:28:41;;;;;;;1999.90;999.90;;;;;;;;;;6270940;22;20520;-68
2022/07/12 12:31:26;;;;;;;1999.90;999.90;;;;;;;;;;6272094;22;20669;-69
2022/07/12 12:34:11;;;;;;;1999.90;999.90;;;;;;;;;;6271992;22;20184;-69
2022/07/12 12:36:57;;;;;;;1999.90;999.90;;;;;;;;;;6272728;22;20167;-70
2022/07/12 12:39:49;;;;;;;1999.90;999.90;;;;;;;;;;6272594;22;20163;-70
2022/07/12 12:42:34;;;;;;;1999.90;999.90;;;;;;;;;;6272705;22;20204;-70
2022/07/12 12:45:20;;;;;;;1999.90;999.90;;;;;;;;;;6272252;22;20383;-70
2022/07/12 12:48:06;;;;;;;1999.90;999.90;;;;;;;;;;6272170;22;20196;-69
2022/07/12 12:50:52;;;;;;;1999.90;999.90;;;;;;;;;;6272792;22;20203;-69
2022/07/12 12:53:38;;;;;;;1999.90;999.90;;;;;;;;;;6273052;22;20218;-68
2022/07/12 12:56:25;;;;;;;1999.90;999.90;;;;;;;;;;6272579;22;20165;-68
2022/07/12 12:59:10;;;;;;;1999.90;999.90;;;;;;;;;;6272555;22;20207;-69
2022/07/12 13:01:55;;;;;;;1999.90;999.90;;;;;;;;;;6272425;22;20298;-69
2022/07/12 13:04:40;;;;;;;1999.90;999.90;;;;;;;;;;6272543;22;20704;-69
2022/07/12 13:07:27;;;;;;;1999.90;999.90;;;;;;;;;;6272586;22;20214;-68
2022/07/12 13:10:12;;;;;;;1999.90;999.90;;;;;;;;;;6272454;22;20212;-69
2022/07/12 13:12:59;;;;;;;1999.90;999.90;;;;;;;;;;6274630;22;20715;-70
2022/07/12 13:15:43;;;;;;;1999.90;999.90;;;;;;;;;;6274491;22;20175;-68
2022/07/12 13:18:28;;;;;;;1999.90;999.90;;;;;;;;;;6274097;22;20164;-69
2022/07/12 13:21:13;;;;;;;1999.90;999.90;;;;;;;;;;6274216;22;20251;-68
2022/07/12 13:23:58;;;;;;;1999.90;999.90;;;;;;;;;;6274346;22;20165;-68
2022/07/12 13:26:43;;;;;;;1999.90;999.90;;;;;;;;;;6274589;22;20254;-68
2022/07/12 13:29:29;;;;;;;1999.90;999.90;;;;;;;;;;6273835;22;20188;-69
2022/07/12 13:32:14;;;;;;;1999.90;999.90;;;;;;;;;;6274376;22;20216;-69
2022/07/12 13:35:00;;;;;;;1999.90;999.90;;;;;;;;;;6274387;22;20608;-68
2022/07/12 13:37:45;;;;;;;1999.90;999.90;;;;;;;;;;6274219;22;20195;-67
2022/07/12 13:40:30;;;;;;;1999.90;999.90;;;;;;;;;;6273523;22;20168;-68
2022/07/12 13:43:14;;;;;;;1999.90;999.90;;;;;;;;;;6274763;22;20168;-67
2022/07/12 13:46:01;;;;;;;1999.90;999.90;;;;;;;;;;6274746;22;20184;-68
2022/07/12 13:48:46;;;;;;;1999.90;999.90;;;;;;;;;;6274552;22;20226;-67
2022/07/12 13:51:31;;;;;;;1999.90;999.90;;;;;;;;;;6274036;22;20219;-67
2022/07/12 13:54:16;;;;;;;1999.90;999.90;;;;;;;;;;6273699;22;20430;-68
2022/07/12 13:57:01;;;;;;;1999.90;999.90;;;;;;;;;;6274328;22;20168;-68
2022/07/12 13:59:46;;;;;;;1999.90;999.90;;;;;;;;;;6273349;22;20163;-67
2022/07/12 14:02:33;;;;;;;1999.90;999.90;;;;;;;;;;6273885;22;20282;-67
2022/07/12 14:05:19;;;;;;;1999.90;999.90;;;;;;;;;;6273840;22;20618;-67
2022/07/12 14:08:04;;;;;;;1999.90;999.90;;;;;;;;;;6273664;22;20192;-68
2022/07/12 14:10:49;;;;;;;1999.90;999.90;;;;;;;;;;6273372;22;20203;-68
2022/07/12 14:13:34;;;;;;;1999.90;999.90;;;;;;;;;;6273879;22;20219;-67
2022/07/12 14:16:20;;;;;;;1999.90;999.90;;;;;;;;;;6273819;22;20807;-67
2022/07/12 14:19:07;;;;;;;1999.90;999.90;;;;;;;;;;6273561;22;20238;-67
2022/07/12 14:21:52;;;;;;;1999.90;999.90;;;;;;;;;;6273396;22;20642;-67
2022/07/12 14:24:37;;;;;;;1999.90;999.90;;;;;;;;;;6272574;22;20375;-69
2022/07/12 14:27:21;;;;;;;1999.90;999.90;;;;;;;;;;6273402;22;20250;-68
2022/07/12 14:30:07;;;;;;;1999.90;999.90;;;;;;;;;;6273123;22;20195;-68
2022/07/12 14:32:52;;;;;;;1999.90;999.90;;;;;;;;;;6274536;22;20168;-68
2022/07/12 14:35:38;;;;;;;1999.90;999.90;;;;;;;;;;6274978;22;20164;-68
2022/07/12 14:38:23;;;;;;;1999.90;999.90;;;;;;;;;;6274424;22;20168;-68
2022/07/12 14:41:10;;;;;;;1999.90;999.90;;;;;;;;;;6275545;22;20204;-69
2022/07/12 14:43:55;;;;;;;1999.90;999.90;;;;;;;;;;6274559;22;20375;-69
2022/07/12 14:46:40;;;;;;;1999.90;999.90;;;;;;;;;;6275443;22;20293;-68
2022/07/12 14:49:25;;;;;;;1999.90;999.90;;;;;;;;;;6275579;22;20250;-69
2022/07/12 14:52:11;;;;;;;1999.90;999.90;;;;;;;;;;6275382;22;20199;-69
2022/07/12 14:54:56;;;;;;;1999.90;999.90;;;;;;;;;;6275747;22;20164;-69
2022/07/12 14:57:41;;;;;;;1999.90;999.90;;;;;;;;;;6275210;22;20183;-68
2022/07/12 15:00:27;;;;;;;1999.90;999.90;;;;;;;;;;6275246;22;20240;-68
2022/07/12 15:03:12;;;;;;;1999.90;999.90;;;;;;;;;;6275277;22;20544;-69
2022/07/12 15:05:57;;;;;;;1999.90;999.90;;;;;;;;;;6275415;22;20164;-68
2022/07/12 15:08:43;;;;;;;1999.90;999.90;;;;;;;;;;6274988;22;20188;-70
2022/07/12 15:11:28;;;;;;;1999.90;999.90;;;;;;;;;;6275101;22;20199;-69
2022/07/12 15:14:13;;;;;;;1999.90;999.90;;;;;;;;;;6273617;22;20375;-69
2022/07/12 15:16:58;;;;;;;1999.90;999.90;;;;;;;;;;6275317;22;20164;-70
2022/07/12 15:19:43;;;;;;;1999.90;999.90;;;;;;;;;;6274885;22;20160;-69
2022/07/12 15:22:28;;;;;;;1999.90;999.90;;;;;;;;;;6274359;22;20200;-70
2022/07/12 15:25:14;;;;;;;1999.90;999.90;;;;;;;;;;6275202;22;20187;-69
2022/07/12 15:27:59;;;;;;;1999.90;999.90;;;;;;;;;;6274881;22;20626;-69
2022/07/12 15:30:44;;;;;;;1999.90;999.90;;;;;;;;;;6275385;22;20213;-69
2022/07/12 15:33:29;;;;;;;1999.90;999.90;;;;;;;;;;6274453;22;20214;-69
2022/07/12 15:36:14;;;;;;;1999.90;999.90;;;;;;;;;;6275220;22;20249;-69
2022/07/12 15:38:59;;;;;;;1999.90;999.90;;;;;;;;;;6274418;22;20627;-69
2022/07/12 15:41:47;;;;;;;1999.90;999.90;;;;;;;;;;6274440;22;20239;-70
2022/07/12 15:44:32;;;;;;;1999.90;999.90;;;;;;;;;;6273736;22;20647;-68
2022/07/12 15:47:17;;;;;;;1999.90;999.90;;;;;;;;;;6275041;22;20212;-69
2022/07/12 15:50:01;;;;;;;1999.90;999.90;;;;;;;;;;6275140;22;20238;-69
2022/07/12 15:55:50;;;;;;;1999.90;999.90;;;;;;;;;;6274829;22;20168;-69
2022/07/12 15:58:37;;;;;;;1999.90;999.90;;;;;;;;;;6273523;22;20606;-69
2022/07/12 16:01:22;;;;;;;1999.90;999.90;;;;;;;;;;6274393;22;20208;-70
2022/07/12 16:04:07;;;;;;;1999.90;999.90;;;;;;;;;;6275147;22;20168;-69
2022/07/12 16:06:52;;;;;;;1999.90;999.90;;;;;;;;;;6274915;22;20167;-70
2022/07/12 16:09:37;;;;;;;1999.90;999.90;;;;;;;;;;6274425;22;20227;-69
2022/07/12 16:12:21;;;;;;;1999.90;999.90;;;;;;;;;;6274313;22;20278;-70
2022/07/12 16:15:09;;;;;;;1999.90;999.90;;;;;;;;;;6273945;22;20246;-69
2022/07/12 16:17:54;;;;;;;1999.90;999.90;;;;;;;;;;6275044;22;20276;-70
2022/07/12 16:20:39;;;;;;;1999.90;999.90;;;;;;;;;;6273947;22;20232;-69
2022/07/12 16:23:24;;;;;;;1999.90;999.90;;;;;;;;;;6273422;22;20438;-69
2022/07/12 16:26:09;;;;;;;1999.90;999.90;;;;;;;;;;6274346;22;20219;-70
2022/07/12 16:28:53;;;;;;;1999.90;999.90;;;;;;;;;;6272990;22;20192;-69
2022/07/12 16:31:40;;;;;;;1999.90;999.90;;;;;;;;;;6273520;22;20218;-69
2022/07/12 16:34:25;;;;;;;1999.90;999.90;;;;;;;;;;6273606;22;20168;-69
2022/07/12 16:37:09;;;;;;;1999.90;999.90;;;;;;;;;;6273515;22;20168;-69
2022/07/12 16:39:54;;;;;;;1999.90;999.90;;;;;;;;;;6273214;22;20164;-68
2022/07/12 16:42:39;;;;;;;1999.90;999.90;;;;;;;;;;6273463;22;20200;-71
2022/07/12 16:45:28;;;;;;;1999.90;999.90;;;;;;;;;;6274638;22;20679;-70
2022/07/12 16:48:16;;;;;;;1999.90;999.90;;;;;;;;;;6276526;22;20497;-71
2022/07/12 16:54:09;;;;;;;1999.90;999.90;;;;;;;;;;6263586;22;20520;-70
2022/07/12 16:56:54;;;;;;;1999.90;999.90;;;;;;;;;;6276914;22;20188;-71
2022/07/12 16:59:39;;;;;;;1999.90;999.90;;;;;;;;;;6276230;22;20164;-70
2022/07/12 17:02:24;;;;;;;1999.90;999.90;;;;;;;;;;6275847;22;20207;-71
2022/07/12 17:05:10;;;;;;;1999.90;999.90;;;;;;;;;;6276067;22;20213;-70
2022/07/12 17:07:55;;;;;;;1999.90;999.90;;;;;;;;;;6275049;22;20172;-70
2022/07/12 17:10:40;;;;;;;1999.90;999.90;;;;;;;;;;6275800;22;20407;-70
2022/07/12 17:13:25;;;;;;;1999.90;999.90;;;;;;;;;;6276690;22;20244;-71
2022/07/12 17:16:10;;;;;;;1999.90;999.90;;;;;;;;;;6276070;22;20180;-70
2022/07/12 17:19:01;;;;;;;1999.90;999.90;;;;;;;;;;6276263;22;20206;-70
2022/07/12 17:21:48;;;;;;;1999.90;999.90;;;;;;;;;;6276577;22;20203;-69
2022/07/12 17:24:33;;;;;;;1999.90;999.90;;;;;;;;;;6276492;22;20166;-70
2022/07/12 17:27:18;;;;;;;1999.90;999.90;;;;;;;;;;6275858;22;20219;-71
2022/07/12 17:30:03;;;;;;;1999.90;999.90;;;;;;;;;;6275629;22;20274;-69
2022/07/12 17:32:48;;;;;;;1999.90;999.90;;;;;;;;;;6275329;22;20742;-71
2022/07/12 17:35:36;;;;;;;1999.90;999.90;;;;;;;;;;6276273;22;20171;-70
2022/07/12 17:38:22;;;;;;;1999.90;999.90;;;;;;;;;;6275861;22;20883;-70
2022/07/12 17:41:07;;;;;;;1999.90;999.90;;;;;;;;;;6274277;22;21117;-70
2022/07/12 17:43:53;;;;;;;1999.90;999.90;;;;;;;;;;6275852;22;20168;-70
2022/07/12 17:46:38;;;;;;;1999.90;999.90;;;;;;;;;;6276197;22;20164;-69
2022/07/12 17:49:23;;;;;;;1999.90;999.90;;;;;;;;;;6274704;22;20677;-69
2022/07/12 17:52:08;;;;;;;1999.90;999.90;;;;;;;;;;6275802;22;20207;-69
2022/07/12 17:54:54;;;;;;;1999.90;999.90;;;;;;;;;;6275261;22;20164;-71
2022/07/12 17:57:39;;;;;;;1999.90;999.90;;;;;;;;;;6275746;22;20499;-71
2022/07/12 18:00:25;;;;;;;1999.90;999.90;;;;;;;;;;6275050;22;20507;-70
2022/07/12 18:03:11;;;;;;;1999.90;999.90;;;;;;;;;;6275473;22;20253;-70
2022/07/12 18:05:56;;;;;;;1999.90;999.90;;;;;;;;;;6276088;22;20244;-70
2022/07/12 18:08:41;;;;;;;1999.90;999.90;;;;;;;;;;6275084;22;20172;-70
2022/07/12 18:14:43;;;;;;;1999.90;999.90;;;;;;;;;;6274896;22;20168;-71
2022/07/12 18:20:31;;;;;;;1999.90;999.90;;;;;;;;;;6275747;22;20216;-70
2022/07/12 18:23:16;;;;;;;1999.90;999.90;;;;;;;;;;6274550;22;20539;-70
2022/07/12 18:26:01;;;;;;;1999.90;999.90;;;;;;;;;;6274653;22;20263;-71
2022/07/12 18:28:48;;;;;;;1999.90;999.90;;;;;;;;;;6274707;22;20214;-71
2022/07/12 18:31:33;;;;;;;1999.90;999.90;;;;;;;;;;6274186;22;20672;-70
2022/07/12 18:34:18;;;;;;;1999.90;999.90;;;;;;;;;;6275383;22;20168;-69
2022/07/12 18:37:03;;;;;;;1999.90;999.90;;;;;;;;;;6275267;22;20172;-69
2022/07/12 18:39:48;;;;;;;1999.90;999.90;;;;;;;;;;6275191;22;20243;-69
2022/07/12 18:42:33;;;;;;;1999.90;999.90;;;;;;;;;;6274865;22;20250;-69
2022/07/12 18:45:19;;;;;;;1999.90;999.90;;;;;;;;;;6274671;22;20164;-69
2022/07/12 18:48:05;;;;;;;1999.90;999.90;;;;;;;;;;6274102;22;20375;-69
2022/07/12 18:50:50;;;;;;;1999.90;999.90;;;;;;;;;;6275359;22;20207;-69
2022/07/12 18:53:35;;;;;;;1999.90;999.90;;;;;;;;;;6275184;22;20163;-69
2022/07/12 18:56:22;;;;;;;1999.90;999.90;;;;;;;;;;6275537;22;20184;-69
2022/07/12 18:59:07;;;;;;;1999.90;999.90;;;;;;;;;;6274511;22;20168;-68
2022/07/12 19:01:53;;;;;;;1999.90;999.90;;;;;;;;;;6275294;22;20223;-69
2022/07/12 19:04:38;;;;;;;1999.90;999.90;;;;;;;;;;6274852;22;20239;-69
2022/07/12 19:07:23;;;;;;;1999.90;999.90;;;;;;;;;;6274803;22;20168;-69
2022/07/12 19:10:08;;;;;;;1999.90;999.90;;;;;;;;;;6274828;22;20517;-69
2022/07/12 19:12:53;;;;;;;1999.90;999.90;;;;;;;;;;6275735;22;20163;-69
2022/07/12 19:15:38;;;;;;;1999.90;999.90;;;;;;;;;;6274076;22;20168;-68
2022/07/12 19:18:24;;;;;;;1999.90;999.90;;;;;;;;;;6273660;22;20423;-69
2022/07/12 19:21:09;;;;;;;1999.90;999.90;;;;;;;;;;6275050;22;20528;-70
2022/07/12 19:23:54;;;;;;;1999.90;999.90;;;;;;;;;;6274673;22;20164;-69
2022/07/12 19:26:39;;;;;;;1999.90;999.90;;;;;;;;;;6274518;22;20180;-69
2022/07/12 19:29:24;;;;;;;1999.90;999.90;;;;;;;;;;6274915;22;20164;-69
2022/07/12 19:32:09;;;;;;;1999.90;999.90;;;;;;;;;;6276115;22;20686;-68
2022/07/12 19:34:55;;;;;;;1999.90;999.90;;;;;;;;;;6276000;22;20164;-69
2022/07/12 19:37:40;;;;;;;1999.90;999.90;;;;;;;;;;6274468;22;20525;-69
2022/07/12 19:40:25;;;;;;;1999.90;999.90;;;;;;;;;;6274479;22;20164;-68
2022/07/12 19:43:10;;;;;;;1999.90;999.90;;;;;;;;;;6275202;22;20211;-69
2022/07/12 19:45:56;;;;;;;1999.90;999.90;;;;;;;;;;6275823;22;20503;-69
2022/07/12 19:48:41;;;;;;;1999.90;999.90;;;;;;;;;;6276414;22;20238;-69